- বাংলা English

** ** Phone: +880 2 9135972, 9123838, 9141437 | Fax: +880 2 8118230, 9119230, 9103908 | E-mail: info@bmd.gov.bd , swc@bmd.gov.bd   | IVR: 1090 |

TAF

VGHS 251700Z 2518/2624 18008KT 3500 HZ SCT015 BKN100
          BECMG 2603/2605 16008KT 4000 HZ SCT015 BKN100
          TEMPO 2612/2618 28025G35KT 2000 RA/TSRA SCT008 FEW025CB BKN090
          BECMG 2620/2622 14008KT 3500 HZ FEW015 SCT100=

VGSY 251000Z 2512/2618 21005KT 4500HZ SCT015 BKN100
          BECMG 2518/2520 05005KT 4000HZ SCT015 BKN100
          BECMG 2523/2601 06004KT 3500HZ SCT012 BKN100
          TEMPO 2512/2618 32035G45KT 1500 TSRA/RA BKN006 FEW025CB OVC080=

VGEG 251100Z 2512/2618 25008KT 5000 HZ FEW018
          BECMG 2520/2522 18004KT 4000 HZ SCT016
          BECMG 2603/2605 23010KT 5000 HZ FEW018
          BECMG 2612/2614 26008KT 4500 HZ SCT018=